Time;durP1;ratioP1;P1;durP2;ratioP2;P2;SDS_P1;SDS_P2;PMS_P1;PMS_P2;Temp;Humidity;BMP_temperature;BMP_pressure;BME280_temperature;BME280_humidity;BME280_pressure;Samples;Min_cycle;Max_cycle;Signal;HPM_P1;HPM_P2
2022/11/19 00:01:02;;;;;;;12.13;8.73;;;;;;;-1.21;85.16;100531.47;5074191;28;20204;-71
2022/11/19 00:03:32;;;;;;;10.83;8.60;;;;;;;-1.25;85.24;100535.88;5071981;28;20217;-70
2022/11/19 00:06:03;;;;;;;11.27;8.53;;;;;;;-1.26;85.57;100530.69;5068011;28;20815;-70
2022/11/19 00:08:30;;;;;;;13.97;9.43;;;;;;;-1.31;85.39;100522.94;5056633;28;20316;-70
2022/11/19 00:11:03;;;;;;;13.43;9.30;;;;;;;-1.32;85.39;100533.41;5066868;28;20224;-71
2022/11/19 00:13:30;;;;;;;13.97;9.47;;;;;;;-1.36;85.38;100529.13;5065989;28;20221;-72
2022/11/19 00:16:01;;;;;;;11.07;7.87;;;;;;;-1.38;84.97;100529.13;5064030;28;20603;-71
2022/11/19 00:18:27;;;;;;;12.50;9.23;;;;;;;-1.40;85.23;100530.91;5061921;28;20694;-71
2022/11/19 00:20:55;;;;;;;12.87;8.23;;;;;;;-1.42;85.46;100527.44;5064202;28;20208;-70
2022/11/19 00:23:21;;;;;;;13.47;9.13;;;;;;;-1.46;85.57;100529.28;5066731;28;20332;-71
2022/11/19 00:25:48;;;;;;;13.20;8.30;;;;;;;-1.47;85.26;100524.94;5058908;28;20217;-72
2022/11/19 00:28:14;;;;;;;13.70;8.53;;;;;;;-1.48;85.09;100527.56;5061083;28;20197;-71
2022/11/19 00:30:42;;;;;;;12.83;8.43;;;;;;;-1.50;85.36;100529.34;5064766;28;20824;-70
2022/11/19 00:33:08;;;;;;;12.97;8.20;;;;;;;-1.53;85.22;100525.03;5063598;28;20662;-70
2022/11/19 00:35:35;;;;;;;14.43;8.93;;;;;;;-1.56;84.95;100527.69;5058151;28;20580;-71
2022/11/19 00:38:01;;;;;;;11.93;8.93;;;;;;;-1.56;85.12;100529.44;5058819;28;20202;-70
2022/11/19 00:40:28;;;;;;;13.60;8.83;;;;;;;-1.60;85.11;100533.84;5059141;28;20220;-70
2022/11/19 00:45:35;;;;;;;13.47;9.17;;;;;;;-1.64;85.41;100537.41;5061085;28;20209;-71
2022/11/19 00:48:02;;;;;;;14.80;9.30;;;;;;;-1.66;85.13;100552.22;5063757;28;20216;-71
2022/11/19 00:50:29;;;;;;;15.00;9.50;;;;;;;-1.69;85.22;100540.97;5066644;28;20236;-71
2022/11/19 00:52:55;;;;;;;13.23;8.57;;;;;;;-1.70;85.05;100550.53;5070229;28;20188;-71
2022/11/19 00:55:22;;;;;;;13.80;9.20;;;;;;;-1.71;85.56;100556.66;5069727;28;20209;-70
2022/11/19 00:57:48;;;;;;;12.13;8.30;;;;;;;-1.74;84.95;100548.84;5063192;28;20706;-71
2022/11/19 01:00:16;;;;;;;13.67;9.40;;;;;;;-1.76;85.56;100553.22;5062368;28;20233;-71
2022/11/19 01:02:42;;;;;;;14.53;8.27;;;;;;;-1.79;85.72;100554.13;5063904;28;20761;-71
2022/11/19 01:05:10;;;;;;;12.47;9.23;;;;;;;-1.81;85.51;100555.06;5065459;28;20208;-71
2022/11/19 01:07:37;;;;;;;15.13;9.97;;;;;;;-1.83;85.10;100560.31;5068557;28;20205;-71
2022/11/19 01:10:04;;;;;;;14.37;9.03;;;;;;;-1.87;85.41;100560.38;5058087;28;20736;-71
2022/11/19 01:13:33;;;;;;;13.27;9.20;;;;;;;-1.89;85.81;100562.13;5068158;28;20201;-71
2022/11/19 01:15:17;;;;;;;14.87;9.43;;;;;;;-1.91;85.52;100564.75;5068975;28;20204;-69
2022/11/19 01:17:43;;;;;;;14.47;9.47;;;;;;;-1.95;85.25;100568.28;5079436;28;20235;-73
2022/11/19 01:20:11;;;;;;;14.23;9.63;;;;;;;-1.98;85.85;100568.38;5059806;28;20244;-71
2022/11/19 01:22:38;;;;;;;14.13;9.93;;;;;;;-2.01;85.63;100573.63;5070400;28;20220;-71
2022/11/19 01:25:05;;;;;;;14.23;9.07;;;;;;;-2.00;85.29;100574.47;5069708;28;20208;-71
2022/11/19 01:27:32;;;;;;;17.03;10.23;;;;;;;-2.02;85.50;100574.50;5075637;28;20205;-72
2022/11/19 01:29:58;;;;;;;12.53;9.10;;;;;;;-2.04;85.41;100575.41;5087720;28;20239;-70
2022/11/19 01:32:25;;;;;;;14.70;9.77;;;;;;;-2.05;85.72;100571.06;5074098;28;20200;-70
2022/11/19 01:34:52;;;;;;;16.93;10.00;;;;;;;-2.05;85.97;100565.84;5075653;28;20200;-70
2022/11/19 01:37:20;;;;;;;16.30;10.20;;;;;;;-2.07;85.51;100578.03;5080043;28;20303;-71
2022/11/19 01:39:46;;;;;;;14.47;9.73;;;;;;;-2.07;86.06;100583.25;5076058;28;20233;-70
2022/11/19 01:42:48;;;;;;;15.83;9.97;;;;;;;-2.10;86.00;100581.56;5079942;28;20728;-71
2022/11/19 01:45:07;;;;;;;15.10;10.23;;;;;;;-2.11;85.89;100582.44;5076820;28;20684;-70
2022/11/19 01:47:34;;;;;;;15.70;9.67;;;;;;;-2.13;85.57;100579.84;5072445;28;20201;-72
2022/11/19 01:50:00;;;;;;;17.63;10.60;;;;;;;-2.15;85.42;100586.81;5074675;28;20231;-71
2022/11/19 01:52:28;;;;;;;18.67;10.17;;;;;;;-2.17;85.75;100583.41;5066296;28;20198;-70
2022/11/19 01:54:55;;;;;;;13.83;9.40;;;;;;;-2.19;86.19;100579.94;5074975;28;20212;-70
2022/11/19 01:57:22;;;;;;;16.37;9.33;;;;;;;-2.20;85.76;100582.56;5065597;28;20205;-70
2022/11/19 01:59:52;;;;;;;14.27;10.17;;;;;;;-2.22;86.01;100584.31;5068110;28;20237;-70
2022/11/19 02:02:21;;;;;;;12.97;9.47;;;;;;;-2.25;86.06;100580.00;5079923;28;20240;-72
2022/11/19 02:04:50;;;;;;;12.33;8.70;;;;;;;-2.26;86.20;100587.84;5070451;28;20196;-70
2022/11/19 02:07:20;;;;;;;13.57;9.27;;;;;;;-2.30;85.65;100587.00;5074762;28;20295;-70
2022/11/19 02:09:49;;;;;;;12.63;9.03;;;;;;;-2.31;85.93;100594.84;5076717;28;20221;-70
2022/11/19 02:12:30;;;;;;;16.17;9.77;;;;;;;-2.35;85.82;100588.84;5074129;28;20608;-70
2022/11/19 02:15:15;;;;;;;14.03;9.70;;;;;;;-2.36;85.88;100591.47;5071020;28;20215;-70
2022/11/19 02:17:54;;;;;;;16.07;9.73;;;;;;;-2.39;85.85;100591.50;5077126;28;20605;-71
2022/11/19 02:20:40;;;;;;;13.77;9.83;;;;;;;-2.41;85.74;100599.31;5068792;28;20229;-70
2022/11/19 02:23:30;;;;;;;11.13;8.80;;;;;;;-2.43;85.96;100606.31;5067362;28;20212;-69
2022/11/19 02:26:26;;;;;;;12.60;8.40;;;;;;;-2.47;85.89;100604.59;5070851;28;20575;-70
2022/11/19 02:29:00;;;;;;;11.30;8.20;;;;;;;-2.51;85.71;100602.94;5070380;28;20224;-70
2022/11/19 02:31:34;;;;;;;12.97;8.50;;;;;;;-2.53;85.64;100610.78;5074749;28;20205;-72
2022/11/19 02:34:07;;;;;;;14.10;9.90;;;;;;;-2.54;86.16;100608.19;5077989;28;20193;-71
2022/11/19 02:36:38;;;;;;;14.60;9.10;;;;;;;-2.57;85.94;100622.09;5068632;28;20815;-71
2022/11/19 02:39:10;;;;;;;13.90;8.80;;;;;;;-2.61;85.79;100620.41;5069597;28;20239;-70
2022/11/19 02:41:39;;;;;;;12.67;8.77;;;;;;;-2.64;85.83;100617.81;5065777;28;20572;-71
2022/11/19 02:47:05;;;;;;;15.00;8.93;;;;;;;-2.71;85.96;100630.94;5067277;28;20221;-72
2022/11/19 02:49:35;;;;;;;14.07;8.70;;;;;;;-2.73;85.99;100635.31;5064972;28;20228;-72
2022/11/19 02:52:03;;;;;;;12.60;8.53;;;;;;;-2.76;85.61;100636.19;5072106;28;20207;-72
2022/11/19 02:54:29;;;;;;;12.40;8.63;;;;;;;-2.78;86.21;100635.34;5080189;28;20203;-71
2022/11/19 02:56:58;;;;;;;13.60;8.97;;;;;;;-2.80;85.67;100627.53;5072355;28;20200;-71
2022/11/19 03:05:06;;;;;;;14.30;9.10;;;;;;;-2.85;85.69;100638.88;5074199;28;20203;-72
2022/11/19 03:07:32;;;;;;;12.80;8.67;;;;;;;-2.90;86.12;100636.34;5069877;28;20359;-71
2022/11/19 03:10:03;;;;;;;10.90;8.60;;;;;;;-2.92;85.83;100637.22;5071786;28;20221;-70
2022/11/19 03:12:38;;;;;;;15.33;9.17;;;;;;;-2.95;86.00;100629.44;5080397;28;20287;-71
2022/11/19 03:18:09;;;;;;;13.63;8.33;;;;;;;-2.98;86.05;100632.06;5071608;28;20209;-72
2022/11/19 03:20:39;;;;;;;13.60;9.43;;;;;;;-3.00;86.30;100628.59;5065850;28;20223;-70
2022/11/19 03:23:11;;;;;;;11.80;7.70;;;;;;;-3.02;86.21;100635.56;5071921;28;20220;-71
2022/11/19 03:25:44;;;;;;;13.07;8.60;;;;;;;-3.04;86.00;100626.88;5065539;28;20204;-70
2022/11/19 03:28:13;;;;;;;12.90;8.13;;;;;;;-3.05;86.27;100630.41;5063347;28;20565;-70
2022/11/19 03:30:43;;;;;;;13.43;8.87;;;;;;;-3.06;85.86;100649.50;5075680;28;20636;-71
2022/11/19 03:33:17;;;;;;;13.23;8.63;;;;;;;-3.09;86.27;100639.97;5069554;28;20200;-70
2022/11/19 03:35:47;;;;;;;14.70;8.50;;;;;;;-3.09;86.47;100647.78;5075673;28;20201;-70
2022/11/19 03:38:18;;;;;;;11.60;8.77;;;;;;;-3.10;86.51;100645.19;5076352;28;20669;-71
2022/11/19 03:40:46;;;;;;;13.40;8.83;;;;;;;-3.12;86.22;100654.75;5078644;28;20208;-71
2022/11/19 03:43:17;;;;;;;13.40;9.23;;;;;;;-3.14;86.67;100654.75;5077042;28;20212;-72
2022/11/19 03:45:47;;;;;;;12.63;8.20;;;;;;;-3.16;86.54;100661.72;5075527;28;20200;-69
2022/11/19 03:48:18;;;;;;;13.33;8.97;;;;;;;-3.17;86.65;100665.19;5070191;28;20200;-70
2022/11/19 03:50:48;;;;;;;13.03;8.40;;;;;;;-3.18;86.22;100666.06;5074953;28;20224;-70
2022/11/19 03:53:15;;;;;;;14.23;9.03;;;;;;;-3.18;86.37;100666.06;5065817;28;20205;-70
2022/11/19 03:55:45;;;;;;;13.63;8.73;;;;;;;-3.20;86.36;100673.03;5065303;28;20215;-71
2022/11/19 03:58:11;;;;;;;11.57;8.30;;;;;;;-3.22;86.45;100672.16;5072436;28;20216;-70
2022/11/19 04:00:38;;;;;;;14.70;9.07;;;;;;;-3.23;86.38;100675.69;5070981;28;20231;-71
2022/11/19 04:03:04;;;;;;;11.63;8.43;;;;;;;-3.25;86.48;100677.44;5071855;28;20246;-70
2022/11/19 04:05:32;;;;;;;17.47;9.13;;;;;;;-3.26;86.70;100680.91;5076158;28;20232;-70
2022/11/19 04:07:59;;;;;;;12.07;8.53;;;;;;;-3.27;86.50;100679.16;5070125;28;20202;-70
2022/11/19 04:10:25;;;;;;;13.37;9.20;;;;;;;-3.29;86.90;100683.53;5073602;28;20221;-70
2022/11/19 04:12:52;;;;;;;12.00;8.17;;;;;;;-3.30;86.97;100685.25;5072697;28;20360;-70
2022/11/19 04:15:18;;;;;;;12.67;8.47;;;;;;;-3.30;86.87;100687.88;5072642;28;20226;-71
2022/11/19 04:17:45;;;;;;;14.57;9.17;;;;;;;-3.31;86.98;100687.88;5077617;28;20208;-70
2022/11/19 04:20:11;;;;;;;13.27;8.40;;;;;;;-3.32;86.91;100693.97;5082949;28;20228;-73
2022/11/19 04:22:39;;;;;;;16.80;9.63;;;;;;;-3.33;86.87;100692.22;5075964;28;20232;-70
2022/11/19 04:25:06;;;;;;;11.93;8.37;;;;;;;-3.35;86.58;100692.22;5079709;28;20201;-71
2022/11/19 04:27:33;;;;;;;13.47;8.47;;;;;;;-3.36;86.86;100698.31;5063790;28;20201;-70
2022/11/19 04:29:59;;;;;;;13.80;8.77;;;;;;;-3.38;86.94;100693.97;5072787;28;20229;-70
2022/11/19 04:32:26;;;;;;;13.60;8.67;;;;;;;-3.39;86.56;100698.31;5064151;28;20211;-70
2022/11/19 04:34:52;;;;;;;14.50;9.30;;;;;;;-3.41;86.66;100696.63;5077878;28;20201;-70
2022/11/19 04:37:19;;;;;;;14.27;8.60;;;;;;;-3.44;86.95;100694.03;5060846;28;20198;-71
2022/11/19 04:39:46;;;;;;;12.43;8.47;;;;;;;-3.46;86.43;100690.56;5065895;28;20229;-69
2022/11/19 04:42:13;;;;;;;13.73;8.67;;;;;;;-3.50;86.68;100693.19;5067977;28;20209;-72
2022/11/19 04:44:39;;;;;;;13.47;9.37;;;;;;;-3.54;86.45;100691.47;5069493;28;20228;-70
2022/11/19 04:47:06;;;;;;;15.00;10.30;;;;;;;-3.55;86.73;100696.69;5068949;28;20200;-70
2022/11/19 04:49:32;;;;;;;15.93;8.90;;;;;;;-3.57;86.60;100694.09;5069178;28;20634;-70
2022/11/19 04:51:59;;;;;;;15.53;9.20;;;;;;;-3.61;86.87;100697.59;5067899;28;20212;-70
2022/11/19 04:54:25;;;;;;;17.57;10.60;;;;;;;-3.62;86.60;100702.81;5068233;28;20197;-71
2022/11/19 04:56:53;;;;;;;13.77;9.03;;;;;;;-3.64;86.78;100707.16;5071537;28;20202;-71
2022/11/19 04:59:19;;;;;;;15.07;8.97;;;;;;;-3.66;86.97;100701.97;5069168;28;21095;-70
2022/11/19 05:01:46;;;;;;;15.17;9.47;;;;;;;-3.65;87.12;100716.69;5075261;28;20232;-70
2022/11/19 05:04:12;;;;;;;16.37;10.07;;;;;;;-3.64;87.13;100709.75;5073138;28;20224;-73
2022/11/19 05:06:39;;;;;;;12.73;8.93;;;;;;;-3.65;86.86;100719.31;5071258;28;20205;-69
2022/11/19 05:09:05;;;;;;;14.30;8.83;;;;;;;-3.67;86.88;100705.44;5078545;28;20215;-69
2022/11/19 05:11:32;;;;;;;15.53;9.53;;;;;;;-3.69;86.63;100709.78;5068522;28;20465;-68
2022/11/19 05:13:59;;;;;;;13.97;9.13;;;;;;;-3.73;86.79;100705.44;5078165;28;20200;-70
2022/11/19 05:16:26;;;;;;;13.27;9.37;;;;;;;-3.75;86.88;100703.72;5069536;28;20201;-71
2022/11/19 05:18:52;;;;;;;15.40;9.40;;;;;;;-3.77;87.03;100700.28;5076965;28;20232;-71
2022/11/19 05:21:19;;;;;;;13.27;9.27;;;;;;;-3.80;86.93;100697.69;5064237;28;20216;-70
2022/11/19 05:23:45;;;;;;;17.17;10.27;;;;;;;-3.82;87.01;100697.69;5063579;28;20230;-70
2022/11/19 05:26:12;;;;;;;13.53;9.70;;;;;;;-3.84;87.04;100699.44;5071891;28;20558;-70
2022/11/19 05:28:38;;;;;;;15.33;9.47;;;;;;;-3.84;87.29;100699.44;5067898;28;20201;-73
2022/11/19 05:31:06;;;;;;;13.33;8.97;;;;;;;-3.84;87.29;100702.03;5066588;28;20673;-69
2022/11/19 05:33:33;;;;;;;15.63;9.77;;;;;;;-3.82;87.41;100710.69;5064038;28;20207;-70
2022/11/19 05:35:59;;;;;;;15.53;9.77;;;;;;;-3.83;87.16;100708.09;5068616;28;20197;-70
2022/11/19 05:38:25;;;;;;;15.13;9.60;;;;;;;-3.86;87.43;100702.03;5069204;28;20201;-70
2022/11/19 05:40:52;;;;;;;14.47;9.60;;;;;;;-3.86;87.50;100708.97;5073876;28;20205;-73
2022/11/19 05:43:18;;;;;;;16.40;9.53;;;;;;;-3.87;87.78;100692.50;5069441;28;20220;-70
2022/11/19 05:45:45;;;;;;;13.80;9.97;;;;;;;-3.87;87.56;100699.44;5065205;28;20201;-72
2022/11/19 05:48:13;;;;;;;16.17;9.93;;;;;;;-3.88;87.54;100693.38;5068899;28;20575;-71
2022/11/19 05:50:41;;;;;;;15.27;10.17;;;;;;;-3.88;87.92;100697.72;5069225;28;20225;-72
2022/11/19 05:53:07;;;;;;;13.70;9.60;;;;;;;-3.90;87.88;100695.09;5071444;28;20200;-69
2022/11/19 05:55:34;;;;;;;16.20;9.77;;;;;;;-3.91;87.84;100695.97;5069059;28;20209;-72
2022/11/19 05:58:00;;;;;;;15.93;10.10;;;;;;;-3.90;87.68;100694.25;5077222;28;20224;-70
2022/11/19 06:00:27;;;;;;;12.77;9.33;;;;;;;-3.91;87.84;100697.72;5073865;28;20246;-71
2022/11/19 06:02:53;;;;;;;15.63;9.47;;;;;;;-3.91;88.01;100702.91;5075199;28;20197;-70
2022/11/19 06:05:21;;;;;;;13.97;9.97;;;;;;;-3.95;88.02;100702.09;5067596;28;20231;-70
2022/11/19 06:07:47;;;;;;;13.67;8.97;;;;;;;-3.96;87.84;100715.09;5072443;28;20208;-71
2022/11/19 06:10:14;;;;;;;17.93;9.77;;;;;;;-3.97;87.68;100713.38;5073330;28;20236;-71
2022/11/19 06:12:41;;;;;;;13.63;8.80;;;;;;;-3.99;88.10;100721.16;5072705;28;20211;-70
2022/11/19 06:15:09;;;;;;;16.03;10.10;;;;;;;-4.01;87.89;100722.91;5075261;28;20196;-70
2022/11/19 06:17:35;;;;;;;15.87;9.87;;;;;;;-4.03;87.80;100722.03;5067364;28;20212;-70
2022/11/19 06:20:02;;;;;;;17.87;10.17;;;;;;;-4.04;87.95;100735.06;5072691;28;20219;-72
2022/11/19 06:22:30;;;;;;;16.23;10.03;;;;;;;-4.08;87.77;100738.53;5068521;28;20197;-69
2022/11/19 06:24:56;;;;;;;16.20;10.43;;;;;;;-4.10;87.85;100746.34;5076561;28;20227;-70
2022/11/19 06:27:22;;;;;;;16.67;10.27;;;;;;;-4.11;87.94;100752.41;5060250;28;20205;-70
2022/11/19 06:29:49;;;;;;;14.47;9.70;;;;;;;-4.13;87.93;100748.97;5067089;28;20713;-69
2022/11/19 06:32:15;;;;;;;17.07;10.07;;;;;;;-4.14;88.22;100752.44;5072215;28;20204;-70
2022/11/19 06:34:42;;;;;;;22.33;10.70;;;;;;;-4.14;88.21;100752.44;5072874;28;20708;-70
2022/11/19 06:37:08;;;;;;;19.40;10.90;;;;;;;-4.13;88.16;100755.91;5070381;28;20292;-71
2022/11/19 06:39:36;;;;;;;17.83;10.67;;;;;;;-4.13;88.21;100755.91;5067113;28;20227;-70
2022/11/19 06:44:43;;;;;;;17.60;10.17;;;;;;;-4.13;88.26;100758.50;5067923;28;20235;-70
2022/11/19 06:47:10;;;;;;;20.90;11.40;;;;;;;-4.13;88.42;100766.31;5068189;28;20212;-70
2022/11/19 06:49:36;;;;;;;17.83;11.10;;;;;;;-4.13;88.49;100766.31;5071404;28;20729;-70
2022/11/19 06:52:03;;;;;;;22.13;13.63;;;;;;;-4.14;88.36;100775.84;5068869;28;20204;-71
2022/11/19 06:54:29;;;;;;;23.00;14.50;;;;;;;-4.16;88.48;100774.09;5072997;28;20201;-70
2022/11/19 06:56:57;;;;;;;25.23;13.13;;;;;;;-4.17;88.52;100769.78;5062152;28;20204;-72
2022/11/19 06:59:23;;;;;;;21.97;12.87;;;;;;;-4.17;88.73;100772.38;5074665;28;20224;-70
2022/11/19 07:01:50;;;;;;;23.90;12.73;;;;;;;-4.18;88.46;100773.25;5062535;28;20197;-71
2022/11/19 07:04:16;;;;;;;24.63;14.73;;;;;;;-4.18;88.54;100778.44;5071788;28;20220;-70
2022/11/19 07:06:43;;;;;;;21.43;12.40;;;;;;;-4.19;88.72;100769.78;5065778;28;20263;-70
2022/11/19 07:09:09;;;;;;;22.60;12.80;;;;;;;-4.18;88.84;100781.03;5063246;28;20226;-70
2022/11/19 07:11:36;;;;;;;19.97;11.93;;;;;;;-4.18;88.83;100784.50;5062291;28;20201;-70
2022/11/19 07:14:04;;;;;;;18.47;11.57;;;;;;;-4.17;88.82;100777.56;5075035;28;20205;-72
2022/11/19 07:16:32;;;;;;;19.27;11.57;;;;;;;-4.15;88.71;100775.84;5059394;28;20219;-69
2022/11/19 07:18:59;;;;;;;20.60;12.77;;;;;;;-4.14;89.14;100777.56;5057555;28;20699;-71
2022/11/19 07:21:27;;;;;;;19.27;12.23;;;;;;;-4.16;89.23;100768.91;5058563;28;20247;-70
2022/11/19 07:23:54;;;;;;;23.00;13.37;;;;;;;-4.15;89.34;100776.69;5063173;28;20707;-71
2022/11/19 07:26:21;;;;;;;21.07;12.57;;;;;;;-4.14;89.67;100778.44;5057884;28;20690;-71
2022/11/19 07:28:47;;;;;;;18.27;11.37;;;;;;;-4.12;89.65;100796.66;5060321;28;20816;-70
2022/11/19 07:31:15;;;;;;;15.73;9.67;;;;;;;-4.13;89.70;100792.31;5063648;28;20196;-72
2022/11/19 07:33:41;;;;;;;17.73;10.10;;;;;;;-4.12;89.73;100794.88;5063621;28;20201;-70
2022/11/19 07:36:10;;;;;;;17.63;9.87;;;;;;;-4.11;89.91;100798.34;5068225;28;20249;-71
2022/11/19 07:38:37;;;;;;;14.67;9.57;;;;;;;-4.12;89.87;100802.69;5066428;28;20209;-70
2022/11/19 07:42:47;;;;;;;15.30;9.77;;;;;;;-4.12;90.00;100804.44;5063719;28;20204;-70
2022/11/19 07:43:51;;;;;;;14.30;9.23;;;;;;;-4.12;89.80;100812.25;5064885;28;20264;-69
2022/11/19 07:46:19;;;;;;;15.63;10.10;;;;;;;-4.12;89.91;100805.28;5063179;28;20761;-71
2022/11/19 07:48:46;;;;;;;18.53;11.27;;;;;;;-4.10;90.21;100807.88;5065506;28;20255;-70
2022/11/19 07:51:13;;;;;;;17.47;9.90;;;;;;;-4.07;90.45;100798.34;5068231;28;20293;-68
2022/11/19 07:53:41;;;;;;;15.83;10.43;;;;;;;-4.04;90.26;100789.69;5065874;28;20202;-72
2022/11/19 07:56:08;;;;;;;17.70;10.23;;;;;;;-4.02;90.32;100788.81;5067944;28;20206;-69
2022/11/19 07:58:34;;;;;;;18.37;10.67;;;;;;;-3.99;90.44;100793.16;5068798;28;20200;-71
2022/11/19 08:01:07;;;;;;;15.70;10.83;;;;;;;-3.97;90.58;100799.22;5063441;28;20540;-71
2022/11/19 08:03:35;;;;;;;16.93;10.80;;;;;;;-3.95;90.70;100794.88;5067544;28;20584;-70
2022/11/19 08:06:02;;;;;;;16.43;10.07;;;;;;;-3.95;90.61;100798.34;5061614;28;20225;-71
2022/11/19 08:08:29;;;;;;;15.87;9.87;;;;;;;-3.92;91.04;100807.84;5064926;28;20216;-70
2022/11/19 08:10:55;;;;;;;16.80;9.97;;;;;;;-3.92;90.81;100811.31;5066548;28;20205;-70
2022/11/19 08:13:22;;;;;;;16.80;10.20;;;;;;;-3.91;90.82;100807.84;5063175;28;20968;-70
2022/11/19 08:15:48;;;;;;;14.97;10.70;;;;;;;-3.88;91.03;100804.38;5062924;28;20663;-70
2022/11/19 08:18:15;;;;;;;15.73;9.63;;;;;;;-3.85;90.85;100806.97;5057797;28;20296;-71
2022/11/19 08:20:44;;;;;;;16.30;11.33;;;;;;;-3.86;90.66;100798.31;5064078;28;20716;-70
2022/11/19 08:23:11;;;;;;;17.27;9.93;;;;;;;-3.83;91.05;100799.19;5065800;28;20318;-70
2022/11/19 08:25:38;;;;;;;15.97;10.40;;;;;;;-3.81;91.03;100803.50;5058190;28;20229;-70
2022/11/19 08:28:05;;;;;;;17.67;10.17;;;;;;;-3.76;91.37;100801.75;5060923;28;20248;-69
2022/11/19 08:30:33;;;;;;;13.13;9.23;;;;;;;-3.69;91.42;100797.41;5061710;28;20634;-70
2022/11/19 08:33:00;;;;;;;17.43;10.23;;;;;;;-3.67;91.60;100796.53;5062643;28;20246;-70
2022/11/19 08:35:26;;;;;;;17.57;10.87;;;;;;;-3.61;91.44;100801.72;5065220;28;20200;-70
2022/11/19 08:37:54;;;;;;;22.03;11.90;;;;;;;-3.56;91.83;100797.34;5063700;28;20205;-69
2022/11/19 08:40:21;;;;;;;15.77;10.40;;;;;;;-3.45;91.83;100799.06;5064294;28;20221;-69
2022/11/19 08:42:58;;;;;;;18.07;11.13;;;;;;;-3.36;92.05;100804.22;5065696;28;20213;-70
2022/11/19 08:45:26;;;;;;;19.40;11.33;;;;;;;-3.26;92.33;100798.09;5064051;28;20311;-69
2022/11/19 08:47:53;;;;;;;16.30;10.77;;;;;;;-3.15;92.30;100801.50;5065242;28;20232;-70
2022/11/19 08:50:19;;;;;;;17.10;10.93;;;;;;;-3.06;92.49;100808.44;5075784;28;20600;-70
2022/11/19 08:52:46;;;;;;;18.67;11.07;;;;;;;-2.99;92.75;100805.75;5074122;28;20212;-70
2022/11/19 08:55:14;;;;;;;16.73;10.30;;;;;;;-2.95;92.14;100798.78;5069633;28;20220;-70
2022/11/19 08:57:40;;;;;;;14.87;10.73;;;;;;;-2.96;91.93;100799.66;5070439;28;20208;-71
2022/11/19 09:00:08;;;;;;;17.03;10.27;;;;;;;-2.95;91.70;100804.88;5062338;28;20248;-70
2022/11/19 09:02:35;;;;;;;17.30;11.00;;;;;;;-2.93;91.63;100810.94;5061127;28;20888;-70
2022/11/19 09:05:01;;;;;;;16.10;10.90;;;;;;;-2.93;91.35;100803.13;5078340;28;20616;-69
2022/11/19 09:07:28;;;;;;;15.10;10.23;;;;;;;-2.92;91.65;100811.81;5078441;28;20211;-70
2022/11/19 09:09:54;;;;;;;16.73;10.30;;;;;;;-2.91;91.28;100810.94;5076478;28;20248;-70
2022/11/19 09:12:22;;;;;;;15.10;10.27;;;;;;;-2.88;91.16;100806.59;5069644;28;20205;-70
2022/11/19 09:14:49;;;;;;;12.83;9.33;;;;;;;-2.81;91.48;100805.66;5072101;28;20197;-70
2022/11/19 09:17:15;;;;;;;17.00;9.93;;;;;;;-2.72;91.74;100815.16;5072713;28;20291;-70
2022/11/19 09:19:42;;;;;;;14.60;9.70;;;;;;;-2.61;91.91;100822.91;5071350;28;20228;-74
2022/11/19 09:22:08;;;;;;;13.93;9.43;;;;;;;-2.50;91.72;100815.84;5069080;28;20205;-70
2022/11/19 09:24:35;;;;;;;14.93;10.03;;;;;;;-2.41;91.63;100823.63;5070190;28;20229;-71
2022/11/19 09:27:01;;;;;;;388.63;35.50;;;;;;;-2.33;92.03;100821.78;5071834;28;20212;-70
2022/11/19 09:29:29;;;;;;;14.67;9.43;;;;;;;-2.24;91.44;100823.47;5074783;28;20238;-70
2022/11/19 09:31:56;;;;;;;12.93;9.47;;;;;;;-2.19;91.40;100812.13;5067698;28;20213;-70
2022/11/19 09:34:22;;;;;;;12.77;9.47;;;;;;;-2.13;91.36;100819.88;5073834;28;20218;-69
2022/11/19 09:36:50;;;;;;;14.37;9.40;;;;;;;-2.10;91.50;100814.66;5073943;28;20206;-69
2022/11/19 09:39:17;;;;;;;14.13;9.13;;;;;;;-2.07;90.92;100831.16;5072344;28;20227;-70
2022/11/19 09:41:54;;;;;;;14.97;9.10;;;;;;;-2.03;90.90;100825.03;5071495;28;20216;-70
2022/11/19 09:44:40;;;;;;;11.37;8.53;;;;;;;-1.99;90.92;100821.53;5064229;28;20196;-70
2022/11/19 09:47:17;;;;;;;12.83;8.60;;;;;;;-1.92;91.13;100818.81;5056719;28;20203;-70
2022/11/19 09:50:00;;;;;;;14.30;9.10;;;;;;;-1.85;90.71;100819.66;5057358;28;20239;-69
2022/11/19 09:52:32;;;;;;;11.97;8.33;;;;;;;-1.84;90.33;100817.03;5059309;28;20209;-70
2022/11/19 09:55:00;;;;;;;15.37;9.27;;;;;;;-1.79;90.21;100811.72;5053701;28;20194;-70
2022/11/19 09:57:35;;;;;;;13.90;9.40;;;;;;;-1.75;89.87;100814.28;5062681;28;20208;-69
2022/11/19 10:00:07;;;;;;;12.50;8.50;;;;;;;-1.69;89.19;100809.91;5050668;28;20625;-69
2022/11/19 10:02:34;;;;;;;14.40;9.37;;;;;;;-1.68;88.63;100802.06;5059264;28;20212;-70
2022/11/19 10:05:01;;;;;;;15.27;10.67;;;;;;;-1.65;88.54;100796.81;5056972;28;20220;-71
2022/11/19 10:07:38;;;;;;;14.00;8.43;;;;;;;-1.60;87.95;100800.19;5054636;28;20212;-72
2022/11/19 10:10:22;;;;;;;12.57;8.90;;;;;;;-1.55;87.83;100793.19;5055361;28;20232;-69
2022/11/19 10:13:11;;;;;;;12.93;9.70;;;;;;;-1.53;87.25;100794.03;5056465;28;20221;-69
2022/11/19 10:15:57;;;;;;;14.90;9.87;;;;;;;-1.51;87.21;100787.06;5050936;28;20692;-70
2022/11/19 10:18:36;;;;;;;12.93;8.83;;;;;;;-1.49;86.80;100781.81;5058364;28;20201;-69
2022/11/19 10:21:14;;;;;;;13.60;8.70;;;;;;;-1.48;86.58;100784.41;5057675;28;20307;-73
2022/11/19 10:23:49;;;;;;;17.63;9.50;;;;;;;-1.46;86.49;100785.25;5059923;28;20226;-69
2022/11/19 10:26:17;;;;;;;14.07;8.67;;;;;;;-1.45;85.65;100784.38;5057080;28;20235;-69
2022/11/19 10:28:52;;;;;;;11.83;8.33;;;;;;;-1.44;85.94;100793.94;5053953;28;20224;-69
2022/11/19 10:31:28;;;;;;;11.10;8.40;;;;;;;-1.41;85.27;100785.19;5056686;28;20802;-69
2022/11/19 10:34:02;;;;;;;13.70;9.17;;;;;;;-1.38;84.78;100773.81;5059593;28;20207;-68
2022/11/19 10:36:33;;;;;;;11.80;8.67;;;;;;;-1.36;84.58;100777.28;5061836;28;20204;-69
2022/11/19 10:39:06;;;;;;;14.83;9.57;;;;;;;-1.33;84.84;100778.13;5062759;28;20590;-71
2022/11/19 10:41:38;;;;;;;14.07;9.67;;;;;;;-1.30;84.45;100782.44;5060209;28;20696;-70
2022/11/19 10:47:02;;;;;;;12.73;8.83;;;;;;;-1.23;84.40;100784.06;5062436;28;20209;-70
2022/11/19 10:49:28;;;;;;;11.23;8.63;;;;;;;-1.18;83.98;100777.91;5061199;28;20226;-69
2022/11/19 10:51:55;;;;;;;11.47;8.30;;;;;;;-1.16;83.75;100775.28;5060348;28;20216;-69
2022/11/19 10:54:25;;;;;;;11.40;8.47;;;;;;;-1.15;83.57;100772.66;5055657;28;20210;-70
2022/11/19 10:56:53;;;;;;;11.10;8.37;;;;;;;-1.14;83.46;100769.16;5058501;28;20225;-69
2022/11/19 10:59:22;;;;;;;11.63;7.73;;;;;;;-1.12;83.33;100774.38;5056283;28;20221;-69
2022/11/19 11:01:53;;;;;;;11.63;7.90;;;;;;;-1.09;82.54;100772.59;5060459;28;20785;-70
2022/11/19 11:04:23;;;;;;;11.20;7.87;;;;;;;-1.06;82.55;100767.28;5053766;28;20216;-70
2022/11/19 11:06:58;;;;;;;14.43;9.27;;;;;;;-1.02;82.70;100765.50;5061231;28;20224;-69
2022/11/19 11:09:29;;;;;;;15.10;9.03;;;;;;;-0.99;82.30;100762.84;5063776;28;20221;-71
2022/11/19 11:14:54;;;;;;;11.77;8.60;;;;;;;-0.91;82.63;100755.78;5062056;28;20279;-69
2022/11/19 11:17:24;;;;;;;13.07;8.67;;;;;;;-0.88;82.23;100755.69;5062648;28;20197;-69
2022/11/19 11:20:00;;;;;;;12.80;7.70;;;;;;;-0.85;82.02;100765.25;5066981;28;20252;-70
2022/11/19 11:22:27;;;;;;;12.80;9.03;;;;;;;-0.84;81.66;100751.28;5068131;28;20212;-71
2022/11/19 11:24:54;;;;;;;11.40;8.70;;;;;;;-0.83;81.99;100753.03;5061319;28;20204;-69
2022/11/19 11:27:26;;;;;;;12.90;9.63;;;;;;;-0.81;81.80;100752.13;5064422;28;20226;-71
2022/11/19 11:30:05;;;;;;;12.17;8.17;;;;;;;-0.81;81.62;100746.88;5063722;28;20229;-71
2022/11/19 11:32:31;;;;;;;13.37;8.23;;;;;;;-0.79;81.37;100755.56;5065799;28;20581;-70
2022/11/19 11:34:59;;;;;;;12.17;7.70;;;;;;;-0.78;81.03;100744.22;5068513;28;20813;-70
2022/11/19 11:37:27;;;;;;;12.93;7.90;;;;;;;-0.77;80.99;100740.72;5069493;28;21015;-69
2022/11/19 11:39:55;;;;;;;12.13;8.23;;;;;;;-0.73;80.90;100741.56;5063913;28;20270;-69
2022/11/19 11:42:25;;;;;;;11.30;7.97;;;;;;;-0.69;80.64;100740.59;5065219;28;20266;-69
2022/11/19 11:44:54;;;;;;;10.83;7.80;;;;;;;-0.68;80.44;100739.69;5064711;28;20210;-70